Time;durP1;ratioP1;P1;durP2;ratioP2;P2;SDS_P1;SDS_P2;PMS_P1;PMS_P2;Temp;Humidity;BMP_temperature;BMP_pressure;BME280_temperature;BME280_humidity;BME280_pressure;Samples;Min_cycle;Max_cycle;Signal;HPM_P1;HPM_P2
2021/01/29 00:00:20;;;;;;;3.67;2.83;;;;;;;;;;5038878;28;20221;-62
2021/01/29 00:02:49;;;;;;;3.85;3.00;;;;;;;;;;5038133;28;20484;-61
2021/01/29 00:05:15;;;;;;;4.85;2.40;;;;;;;;;;5038415;28;20207;-61
2021/01/29 00:07:43;;;;;;;3.97;2.23;;;;;;;;;;5038102;28;20225;-61
2021/01/29 00:10:09;;;;;;;5.90;3.08;;;;;;;;;;5070084;28;20235;-62
2021/01/29 00:12:34;;;;;;;6.03;2.50;;;;;;;;;;5030253;28;20314;-61
2021/01/29 00:14:59;;;;;;;5.00;2.70;;;;;;;;;;5038065;28;20225;-60
2021/01/29 00:17:25;;;;;;;7.03;2.80;;;;;;;;;;5039207;28;20226;-60
2021/01/29 00:19:50;;;;;;;5.20;3.20;;;;;;;;;;5037683;28;20217;-61
2021/01/29 00:22:16;;;;;;;4.33;2.60;;;;;;;;;;5038015;28;20221;-62
2021/01/29 00:24:43;;;;;;;4.37;3.50;;;;;;;;;;5038321;28;20306;-63
2021/01/29 00:27:08;;;;;;;5.07;2.40;;;;;;;;;;5036532;28;20213;-60
2021/01/29 00:29:34;;;;;;;3.53;2.77;;;;;;;;;;5038375;28;20475;-62
2021/01/29 00:31:59;;;;;;;5.73;2.20;;;;;;;;;;5038616;28;20252;-62
2021/01/29 00:34:25;;;;;;;3.13;2.40;;;;;;;;;;5038363;28;20216;-62
2021/01/29 00:36:50;;;;;;;4.07;2.63;;;;;;;;;;5037456;28;20293;-61
2021/01/29 00:39:16;;;;;;;4.23;2.60;;;;;;;;;;5037966;28;20218;-62
2021/01/29 00:41:41;;;;;;;7.77;2.93;;;;;;;;;;5037689;28;20340;-62
2021/01/29 00:44:06;;;;;;;7.17;3.07;;;;;;;;;;5038257;28;20247;-62
2021/01/29 00:46:31;;;;;;;4.20;2.37;;;;;;;;;;5038310;28;20211;-62
2021/01/29 00:48:57;;;;;;;3.07;1.93;;;;;;;;;;5037598;28;20273;-62
2021/01/29 00:51:22;;;;;;;3.87;2.80;;;;;;;;;;5038036;28;20258;-62
2021/01/29 00:53:47;;;;;;;3.47;2.40;;;;;;;;;;5060806;28;20295;-60
2021/01/29 00:56:12;;;;;;;5.20;2.87;;;;;;;;;;5037952;28;20591;-61
2021/01/29 00:58:38;;;;;;;5.30;3.00;;;;;;;;;;5036597;28;20234;-62
2021/01/29 01:01:04;;;;;;;4.70;2.80;;;;;;;;;;5037915;28;20264;-61
2021/01/29 01:03:30;;;;;;;7.33;3.50;;;;;;;;;;5037673;28;20276;-61
2021/01/29 01:05:55;;;;;;;4.43;2.90;;;;;;;;;;5037486;28;20472;-61
2021/01/29 01:08:21;;;;;;;11.20;3.13;;;;;;;;;;5056035;28;20263;-61
2021/01/29 01:10:46;;;;;;;4.17;2.10;;;;;;;;;;5040080;28;20567;-61
2021/01/29 01:13:12;;;;;;;3.73;2.67;;;;;;;;;;5037568;28;20214;-61
2021/01/29 01:15:37;;;;;;;4.70;2.87;;;;;;;;;;5038356;28;20232;-61
2021/01/29 01:18:07;;;;;;;6.00;2.70;;;;;;;;;;5036900;28;20229;-60
2021/01/29 01:20:33;;;;;;;5.03;2.83;;;;;;;;;;5037117;28;20246;-61
2021/01/29 01:22:59;;;;;;;3.37;2.50;;;;;;;;;;5037334;28;20228;-61
2021/01/29 01:25:25;;;;;;;4.90;2.53;;;;;;;;;;5038150;28;20243;-61
2021/01/29 01:27:50;;;;;;;4.60;2.60;;;;;;;;;;5037495;28;20456;-61
2021/01/29 01:30:19;;;;;;;3.10;2.07;;;;;;;;;;5070430;28;20457;-61
2021/01/29 01:32:45;;;;;;;6.47;2.83;;;;;;;;;;5036971;28;20223;-61
2021/01/29 01:35:11;;;;;;;7.80;3.33;;;;;;;;;;5038176;28;20453;-61
2021/01/29 01:37:36;;;;;;;3.10;2.50;;;;;;;;;;5037224;28;20235;-60
2021/01/29 01:40:03;;;;;;;3.47;2.73;;;;;;;;;;5037501;28;20214;-60
2021/01/29 01:42:28;;;;;;;4.43;2.90;;;;;;;;;;5038116;28;20565;-61
2021/01/29 01:44:54;;;;;;;2.33;2.13;;;;;;;;;;5037372;28;20209;-61
2021/01/29 01:47:32;;;;;;;3.37;3.07;;;;;;;;;;5037126;28;20283;-61
2021/01/29 01:50:03;;;;;;;2.23;2.03;;;;;;;;;;5035944;28;20213;-61
2021/01/29 01:52:32;;;;;;;3.13;2.20;;;;;;;;;;5035975;28;20482;-61
2021/01/29 01:55:01;;;;;;;8.33;2.90;;;;;;;;;;5036221;28;20464;-60
2021/01/29 01:57:28;;;;;;;2.90;2.47;;;;;;;;;;5069379;28;20519;-61
2021/01/29 02:00:00;;;;;;;3.47;2.33;;;;;;;;;;5036162;28;20532;-61
2021/01/29 02:02:29;;;;;;;5.30;2.80;;;;;;;;;;5035708;28;20474;-61
2021/01/29 02:04:56;;;;;;;3.10;2.60;;;;;;;;;;5035206;28;20475;-61
2021/01/29 02:07:31;;;;;;;3.30;2.90;;;;;;;;;;5036157;28;21045;-61
2021/01/29 02:09:58;;;;;;;4.10;2.27;;;;;;;;;;5068585;28;20586;-61
2021/01/29 02:12:23;;;;;;;6.23;2.40;;;;;;;;;;5036250;28;20520;-61
2021/01/29 02:14:49;;;;;;;3.47;2.23;;;;;;;;;;5036285;28;20500;-60
2021/01/29 02:17:46;;;;;;;5.57;2.70;;;;;;;;;;5036387;28;20241;-60
2021/01/29 02:20:38;;;;;;;7.30;2.60;;;;;;;;;;5068626;28;20207;-60
2021/01/29 02:23:40;;;;;;;2.95;1.95;;;;;;;;;;5039709;28;20444;-60
2021/01/29 02:26:22;;;;;;;3.55;2.40;;;;;;;;;;5072305;28;20209;-61
2021/01/29 02:29:15;;;;;;;5.83;3.00;;;;;;;;;;5039375;28;20682;-61
2021/01/29 02:32:05;;;;;;;9.20;3.13;;;;;;;;;;5040124;28;20449;-61
2021/01/29 02:35:08;;;;;;;4.88;2.88;;;;;;;;;;5039362;28;20943;-61
2021/01/29 02:37:59;;;;;;;3.70;2.53;;;;;;;;;;5038898;28;20229;-61
2021/01/29 02:40:33;;;;;;;3.17;2.40;;;;;;;;;;5039223;28;20449;-60
2021/01/29 02:43:19;;;;;;;3.47;2.23;;;;;;;;;;5038204;28;20843;-61
2021/01/29 02:45:54;;;;;;;4.83;2.23;;;;;;;;;;5071443;28;20958;-61
2021/01/29 02:48:38;;;;;;;3.30;2.30;;;;;;;;;;5038039;28;20766;-60
2021/01/29 02:51:24;;;;;;;4.53;2.40;;;;;;;;;;5071043;28;20810;-61
2021/01/29 02:53:56;;;;;;;3.50;2.00;;;;;;;;;;5070887;28;20462;-61
2021/01/29 02:56:29;;;;;;;2.60;1.97;;;;;;;;;;5037829;28;20833;-61
2021/01/29 02:59:03;;;;;;;5.43;2.63;;;;;;;;;;5070900;28;20454;-61
2021/01/29 03:01:34;;;;;;;4.70;3.93;;;;;;;;;;5071192;28;20458;-61
2021/01/29 03:04:02;;;;;;;4.60;2.53;;;;;;;;;;5037369;28;20450;-61
2021/01/29 03:06:45;;;;;;;10.23;2.77;;;;;;;;;;5038966;28;20486;-60
2021/01/29 03:09:17;;;;;;;4.20;2.30;;;;;;;;;;5037906;28;20845;-61
2021/01/29 03:11:57;;;;;;;3.77;2.30;;;;;;;;;;5037577;28;20450;-60
2021/01/29 03:14:45;;;;;;;2.93;1.73;;;;;;;;;;5037986;28;20485;-61
2021/01/29 03:17:13;;;;;;;2.50;1.67;;;;;;;;;;5037972;28;20544;-61
2021/01/29 03:20:00;;;;;;;3.63;2.30;;;;;;;;;;5037674;28;20442;-61
2021/01/29 03:22:41;;;;;;;4.33;2.40;;;;;;;;;;5037771;28;20810;-61
2021/01/29 03:25:20;;;;;;;3.50;2.77;;;;;;;;;;5037413;28;20467;-61
2021/01/29 03:27:51;;;;;;;3.50;2.27;;;;;;;;;;5038049;28;20463;-60
2021/01/29 03:30:19;;;;;;;6.27;2.10;;;;;;;;;;5037305;28;20528;-60
2021/01/29 03:32:47;;;;;;;3.70;2.40;;;;;;;;;;5069183;28;20461;-61
2021/01/29 03:35:34;;;;;;;3.20;2.37;;;;;;;;;;5036695;28;20452;-61
2021/01/29 03:38:07;;;;;;;3.07;2.33;;;;;;;;;;5037074;28;20468;-61
2021/01/29 03:40:32;;;;;;;2.93;2.40;;;;;;;;;;5037180;28;20468;-61
2021/01/29 03:43:06;;;;;;;4.40;2.57;;;;;;;;;;5036687;28;20507;-61
2021/01/29 03:45:39;;;;;;;3.93;2.50;;;;;;;;;;5037729;28;20280;-61
2021/01/29 03:48:20;;;;;;;2.33;2.13;;;;;;;;;;5036498;28;20456;-61
2021/01/29 03:50:54;;;;;;;4.47;2.57;;;;;;;;;;5036748;28;20468;-61
2021/01/29 03:53:37;;;;;;;2.40;2.20;;;;;;;;;;5036064;28;20453;-61
2021/01/29 03:56:10;;;;;;;3.00;2.07;;;;;;;;;;5036596;28;20527;-61
2021/01/29 03:59:05;;;;;;;3.33;2.20;;;;;;;;;;5019955;28;20533;-61
2021/01/29 04:01:38;;;;;;;2.77;2.57;;;;;;;;;;5035671;28;20502;-61
2021/01/29 04:04:14;;;;;;;5.00;2.20;;;;;;;;;;5035587;28;20456;-61
2021/01/29 04:06:50;;;;;;;6.50;2.30;;;;;;;;;;5036303;28;20456;-62
2021/01/29 04:09:22;;;;;;;2.20;1.90;;;;;;;;;;5069726;28;20528;-61
2021/01/29 04:11:52;;;;;;;4.10;2.53;;;;;;;;;;5035578;28;20855;-61
2021/01/29 04:14:28;;;;;;;6.47;2.50;;;;;;;;;;5035726;28;20484;-61
2021/01/29 04:16:56;;;;;;;3.00;2.00;;;;;;;;;;5068806;28;20982;-61
2021/01/29 04:19:23;;;;;;;6.80;2.20;;;;;;;;;;5036664;28;20813;-61
2021/01/29 04:21:57;;;;;;;2.00;1.80;;;;;;;;;;5036563;28;20464;-60
2021/01/29 04:24:30;;;;;;;2.47;1.93;;;;;;;;;;5068408;28;20482;-61
2021/01/29 04:27:06;;;;;;;6.00;2.50;;;;;;;;;;5064688;28;20525;-62
2021/01/29 04:29:44;;;;;;;2.53;1.93;;;;;;;;;;5015770;28;20874;-61
2021/01/29 04:32:13;;;;;;;3.50;2.30;;;;;;;;;;5020021;28;20696;-62
2021/01/29 04:34:39;;;;;;;2.67;2.27;;;;;;;;;;5061107;28;20482;-61
2021/01/29 04:37:11;;;;;;;4.03;2.13;;;;;;;;;;5029252;28;20478;-62
2021/01/29 04:39:40;;;;;;;3.30;2.70;;;;;;;;;;5029106;28;20466;-62
2021/01/29 04:42:16;;;;;;;4.93;2.77;;;;;;;;;;5022159;28;20500;-61
2021/01/29 04:44:44;;;;;;;4.53;2.73;;;;;;;;;;5021079;28;20547;-61
2021/01/29 04:47:25;;;;;;;4.73;2.73;;;;;;;;;;5024758;28;20479;-61
2021/01/29 04:50:07;;;;;;;2.60;2.20;;;;;;;;;;5020965;28;20495;-62
2021/01/29 04:52:53;;;;;;;4.80;2.23;;;;;;;;;;5024690;28;20543;-61
2021/01/29 04:55:45;;;;;;;4.80;2.07;;;;;;;;;;5022947;28;21372;-61
2021/01/29 04:58:12;;;;;;;3.00;2.03;;;;;;;;;;5021909;28;20861;-61
2021/01/29 05:00:48;;;;;;;5.10;3.13;;;;;;;;;;5024938;28;20809;-62
2021/01/29 05:03:40;;;;;;;3.57;2.30;;;;;;;;;;5043989;28;20493;-62
2021/01/29 05:06:18;;;;;;;5.20;2.60;;;;;;;;;;5027933;28;20452;-62
2021/01/29 05:09:12;;;;;;;3.43;2.53;;;;;;;;;;5026952;28;20581;-62
2021/01/29 05:12:08;;;;;;;4.57;2.20;;;;;;;;;;5010929;28;20496;-62
2021/01/29 05:15:10;;;;;;;3.77;2.23;;;;;;;;;;5022139;28;20793;-62
2021/01/29 05:17:54;;;;;;;2.93;2.20;;;;;;;;;;5022051;28;20962;-61
2021/01/29 05:20:38;;;;;;;4.63;2.73;;;;;;;;;;5022903;28;20540;-62
2021/01/29 05:23:22;;;;;;;6.13;2.80;;;;;;;;;;5012310;28;20456;-62
2021/01/29 05:26:02;;;;;;;3.77;2.50;;;;;;;;;;5022923;28;20445;-62
2021/01/29 05:28:43;;;;;;;4.50;3.30;;;;;;;;;;5017877;28;20464;-61
2021/01/29 05:31:30;;;;;;;9.30;2.83;;;;;;;;;;5023793;28;20466;-61
2021/01/29 05:34:14;;;;;;;2.57;2.37;;;;;;;;;;5021630;28;20750;-61
2021/01/29 05:37:04;;;;;;;6.57;2.40;;;;;;;;;;5021608;28;20481;-61
2021/01/29 05:39:58;;;;;;;3.53;2.60;;;;;;;;;;5014081;28;20851;-61
2021/01/29 05:42:49;;;;;;;2.93;1.93;;;;;;;;;;5020965;28;20475;-61
2021/01/29 05:45:49;;;;;;;3.13;2.40;;;;;;;;;;5020331;28;20808;-61
2021/01/29 05:48:33;;;;;;;5.67;2.60;;;;;;;;;;5020709;28;20468;-60
2021/01/29 05:51:04;;;;;;;2.53;2.30;;;;;;;;;;5027251;28;20516;-61
2021/01/29 05:53:43;;;;;;;3.10;2.87;;;;;;;;;;5028753;28;20461;-61
2021/01/29 05:56:45;;;;;;;2.70;2.33;;;;;;;;;;5026411;28;20581;-60
2021/01/29 05:59:48;;;;;;;5.87;2.73;;;;;;;;;;5018109;28;20800;-61
2021/01/29 06:02:32;;;;;;;2.80;2.50;;;;;;;;;;5016522;28;20458;-61
2021/01/29 06:05:11;;;;;;;4.07;2.80;;;;;;;;;;5025391;28;20458;-61
2021/01/29 06:07:55;;;;;;;4.23;2.30;;;;;;;;;;5026737;28;20467;-60
2021/01/29 06:10:51;;;;;;;3.97;2.33;;;;;;;;;;5013318;28;20539;-60
2021/01/29 06:13:34;;;;;;;4.43;2.60;;;;;;;;;;5025396;28;20814;-61
2021/01/29 06:16:46;;;;;;;4.90;2.17;;;;;;;;;;5024191;28;20469;-62
2021/01/29 06:19:29;;;;;;;9.13;3.33;;;;;;;;;;5024381;28;20463;-61
2021/01/29 06:22:01;;;;;;;4.60;2.07;;;;;;;;;;5029370;28;20467;-61
2021/01/29 06:24:53;;;;;;;3.30;2.13;;;;;;;;;;5030955;28;20452;-61
2021/01/29 06:27:32;;;;;;;7.37;3.20;;;;;;;;;;5031313;28;20460;-61
2021/01/29 06:30:09;;;;;;;3.33;2.33;;;;;;;;;;5021751;28;20476;-61
2021/01/29 06:32:53;;;;;;;3.90;2.40;;;;;;;;;;5026949;28;20466;-61
2021/01/29 06:35:41;;;;;;;5.10;3.00;;;;;;;;;;5013481;28;20463;-61
2021/01/29 06:38:18;;;;;;;4.30;2.63;;;;;;;;;;5005114;28;20551;-61
2021/01/29 06:41:21;;;;;;;4.63;3.03;;;;;;;;;;5028295;28;20472;-60
2021/01/29 06:44:03;;;;;;;3.80;2.57;;;;;;;;;;5014789;28;20459;-61
2021/01/29 06:46:37;;;;;;;3.67;2.87;;;;;;;;;;5023831;28;20471;-61
2021/01/29 06:49:41;;;;;;;3.40;2.57;;;;;;;;;;5025883;28;20772;-60
2021/01/29 06:52:25;;;;;;;3.30;2.10;;;;;;;;;;5019615;28;20506;-61
2021/01/29 06:55:08;;;;;;;9.43;2.60;;;;;;;;;;5024176;28;20797;-61
2021/01/29 06:57:58;;;;;;;3.87;2.67;;;;;;;;;;5023747;28;20858;-61
2021/01/29 07:00:26;;;;;;;4.37;2.70;;;;;;;;;;5026485;28;20469;-62
2021/01/29 07:03:11;;;;;;;5.13;2.70;;;;;;;;;;5032041;28;20463;-61
2021/01/29 07:05:56;;;;;;;6.23;3.90;;;;;;;;;;5030655;28;20448;-62
2021/01/29 07:08:49;;;;;;;7.37;5.30;;;;;;;;;;5026422;28;20467;-62
2021/01/29 07:11:39;;;;;;;6.60;5.17;;;;;;;;;;5024435;28;20958;-62
2021/01/29 07:14:17;;;;;;;6.10;4.57;;;;;;;;;;5023860;28;20482;-62
2021/01/29 07:16:53;;;;;;;4.20;3.17;;;;;;;;;;5025445;28;20483;-62
2021/01/29 07:19:40;;;;;;;3.70;2.90;;;;;;;;;;5029852;28;20461;-62
2021/01/29 07:22:30;;;;;;;6.80;3.10;;;;;;;;;;5031345;28;20467;-62
2021/01/29 07:25:10;;;;;;;9.67;2.90;;;;;;;;;;5029176;28;20463;-62
2021/01/29 07:28:09;;;;;;;5.10;3.43;;;;;;;;;;5011980;28;20502;-61
2021/01/29 07:30:52;;;;;;;5.30;3.10;;;;;;;;;;5014135;28;20483;-62
2021/01/29 07:33:53;;;;;;;4.90;3.83;;;;;;;;;;5024709;28;20456;-61
2021/01/29 07:36:45;;;;;;;2.50;2.23;;;;;;;;;;5034711;28;20473;-62
2021/01/29 07:39:36;;;;;;;4.23;2.60;;;;;;;;;;5026641;28;20917;-62
2021/01/29 07:42:22;;;;;;;3.77;2.53;;;;;;;;;;5025791;28;20476;-63
2021/01/29 07:45:02;;;;;;;3.90;2.50;;;;;;;;;;5024735;28;20527;-62
2021/01/29 07:47:50;;;;;;;5.00;2.90;;;;;;;;;;5023207;28;20561;-62
2021/01/29 07:50:24;;;;;;;5.23;2.83;;;;;;;;;;5026957;28;20463;-62
2021/01/29 07:53:10;;;;;;;3.10;2.60;;;;;;;;;;5030522;28;20458;-62
2021/01/29 07:56:16;;;;;;;3.53;2.83;;;;;;;;;;5029094;28;20813;-62
2021/01/29 07:59:00;;;;;;;4.40;2.83;;;;;;;;;;5027159;28;20531;-62
2021/01/29 08:01:34;;;;;;;3.40;2.57;;;;;;;;;;5030779;28;20478;-62
2021/01/29 08:04:12;;;;;;;2.47;2.27;;;;;;;;;;5029558;28;20939;-62
2021/01/29 08:06:49;;;;;;;7.40;3.60;;;;;;;;;;5025147;28;20457;-62
2021/01/29 08:09:26;;;;;;;4.77;3.00;;;;;;;;;;5022189;28;20471;-62
2021/01/29 08:11:55;;;;;;;7.20;3.10;;;;;;;;;;5025355;28;20470;-62
2021/01/29 08:14:41;;;;;;;8.17;4.17;;;;;;;;;;5029638;28;20964;-62
2021/01/29 08:17:15;;;;;;;4.80;2.80;;;;;;;;;;5029381;28;20482;-61
2021/01/29 08:19:59;;;;;;;3.47;2.43;;;;;;;;;;5006957;28;20453;-61
2021/01/29 08:22:43;;;;;;;3.90;3.50;;;;;;;;;;5022539;28;20470;-61
2021/01/29 08:25:30;;;;;;;6.47;3.60;;;;;;;;;;5024418;28;20500;-63
2021/01/29 08:28:09;;;;;;;6.00;3.60;;;;;;;;;;5015546;28;20454;-61
2021/01/29 08:30:54;;;;;;;3.10;2.80;;;;;;;;;;5014075;28;20490;-61
2021/01/29 08:33:55;;;;;;;4.53;3.13;;;;;;;;;;5021420;28;20460;-63
2021/01/29 08:37:04;;;;;;;2.77;2.57;;;;;;;;;;5032289;28;20553;-62
2021/01/29 08:39:33;;;;;;;3.97;3.57;;;;;;;;;;5029504;28;20612;-62
2021/01/29 08:42:08;;;;;;;3.70;2.30;;;;;;;;;;5027861;28;20975;-63
2021/01/29 08:45:02;;;;;;;3.07;2.43;;;;;;;;;;5027945;28;20946;-62
2021/01/29 08:47:54;;;;;;;5.60;2.90;;;;;;;;;;5029870;28;20462;-62
2021/01/29 08:50:34;;;;;;;5.70;2.80;;;;;;;;;;5013503;28;20513;-61
2021/01/29 08:53:27;;;;;;;5.40;3.30;;;;;;;;;;5023620;28;20867;-62
2021/01/29 08:56:16;;;;;;;5.30;2.80;;;;;;;;;;5022062;28;20458;-62
2021/01/29 08:59:05;;;;;;;4.70;3.33;;;;;;;;;;5025159;28;20468;-62
2021/01/29 09:01:43;;;;;;;3.67;3.30;;;;;;;;;;5007084;28;20541;-60
2021/01/29 09:04:31;;;;;;;5.20;3.70;;;;;;;;;;5022012;28;20461;-62
2021/01/29 09:06:59;;;;;;;8.83;3.73;;;;;;;;;;5023114;28;20540;-62
2021/01/29 09:09:28;;;;;;;4.20;3.20;;;;;;;;;;5028482;28;20459;-62
2021/01/29 09:11:55;;;;;;;3.43;2.93;;;;;;;;;;5027555;28;20846;-60
2021/01/29 09:14:31;;;;;;;3.37;3.07;;;;;;;;;;5022300;28;20548;-62
2021/01/29 09:17:03;;;;;;;2.93;2.67;;;;;;;;;;5021140;28;20469;-62
2021/01/29 09:19:29;;;;;;;4.10;2.97;;;;;;;;;;5026776;28;20906;-62
2021/01/29 09:22:06;;;;;;;6.73;2.90;;;;;;;;;;5014594;28;20464;-61
2021/01/29 09:24:40;;;;;;;5.37;2.80;;;;;;;;;;5025100;28;20228;-62
2021/01/29 09:27:05;;;;;;;3.23;2.87;;;;;;;;;;5027926;28;20797;-62
2021/01/29 09:30:11;;;;;;;7.43;2.83;;;;;;;;;;5016090;28;20474;-63
2021/01/29 09:33:09;;;;;;;5.07;3.50;;;;;;;;;;5005431;28;20580;-69
2021/01/29 09:35:47;;;;;;;5.63;3.83;;;;;;;;;;5026242;28;20475;-62
2021/01/29 09:38:16;;;;;;;7.83;3.43;;;;;;;;;;5027571;28;20529;-61
2021/01/29 09:40:52;;;;;;;5.60;2.97;;;;;;;;;;5028346;28;20490;-61
2021/01/29 09:43:27;;;;;;;5.57;3.27;;;;;;;;;;5003967;28;20487;-61
2021/01/29 09:45:54;;;;;;;6.47;3.37;;;;;;;;;;5066762;28;20566;-62
2021/01/29 09:48:22;;;;;;;3.17;2.87;;;;;;;;;;5043991;28;20468;-62
2021/01/29 09:50:58;;;;;;;3.60;3.30;;;;;;;;;;5037182;28;20804;-62
2021/01/29 09:53:27;;;;;;;5.67;3.00;;;;;;;;;;5032653;28;20470;-62
2021/01/29 09:55:57;;;;;;;3.47;2.93;;;;;;;;;;5038781;28;20456;-62
2021/01/29 09:59:00;;;;;;;3.67;2.97;;;;;;;;;;5044291;28;20475;-63
2021/01/29 10:01:35;;;;;;;3.97;3.30;;;;;;;;;;5024899;28;20521;-62
2021/01/29 10:04:10;;;;;;;5.30;3.53;;;;;;;;;;5037800;28;20941;-62
2021/01/29 10:06:43;;;;;;;3.20;2.90;;;;;;;;;;5043809;28;20506;-61
2021/01/29 10:09:12;;;;;;;5.07;3.70;;;;;;;;;;5036693;28;20785;-62
2021/01/29 10:11:47;;;;;;;5.63;3.10;;;;;;;;;;5014207;28;20496;-62
2021/01/29 10:14:22;;;;;;;4.97;3.30;;;;;;;;;;5006643;28;20570;-65
2021/01/29 10:17:01;;;;;;;5.43;2.93;;;;;;;;;;5022367;28;20550;-63
2021/01/29 10:19:41;;;;;;;2.83;2.53;;;;;;;;;;5015258;28;20464;-62
2021/01/29 10:22:19;;;;;;;4.80;3.30;;;;;;;;;;5029002;28;20529;-62
2021/01/29 10:25:02;;;;;;;4.70;3.90;;;;;;;;;;5021573;28;21681;-62
2021/01/29 10:27:45;;;;;;;4.67;3.97;;;;;;;;;;5022397;28;20487;-61
2021/01/29 10:30:21;;;;;;;4.57;3.20;;;;;;;;;;5020679;28;20468;-61
2021/01/29 10:33:01;;;;;;;7.83;3.87;;;;;;;;;;5020461;28;20783;-62
2021/01/29 10:35:41;;;;;;;5.70;3.00;;;;;;;;;;5022784;28;20459;-61
2021/01/29 10:38:12;;;;;;;5.00;3.67;;;;;;;;;;5038627;28;20478;-62
2021/01/29 10:40:42;;;;;;;4.37;3.27;;;;;;;;;;5027310;28;20491;-64
2021/01/29 10:43:14;;;;;;;6.43;3.33;;;;;;;;;;5039142;28;20468;-62
2021/01/29 10:45:52;;;;;;;6.13;3.33;;;;;;;;;;5047359;28;20465;-62
2021/01/29 10:48:34;;;;;;;3.30;2.97;;;;;;;;;;5039922;28;20965;-61
2021/01/29 10:51:08;;;;;;;7.10;3.80;;;;;;;;;;5050323;28;20803;-61
2021/01/29 10:53:33;;;;;;;5.83;3.03;;;;;;;;;;5032075;28;20449;-62
2021/01/29 10:56:11;;;;;;;3.33;3.00;;;;;;;;;;5044202;28;20553;-62
2021/01/29 10:58:49;;;;;;;5.93;3.40;;;;;;;;;;5047259;28;20602;-62
2021/01/29 11:01:35;;;;;;;4.10;3.23;;;;;;;;;;5049404;28;20468;-62
2021/01/29 11:04:26;;;;;;;6.43;3.97;;;;;;;;;;5051193;28;20456;-62
2021/01/29 11:06:59;;;;;;;4.90;3.80;;;;;;;;;;5037889;28;20468;-62
2021/01/29 11:09:36;;;;;;;7.23;3.97;;;;;;;;;;5042025;28;20587;-62
2021/01/29 11:12:09;;;;;;;3.43;3.13;;;;;;;;;;5044502;28;20464;-63
2021/01/29 11:14:44;;;;;;;5.63;2.93;;;;;;;;;;5049744;28;20479;-63
2021/01/29 11:17:38;;;;;;;4.20;2.70;;;;;;;;;;5049243;28;20810;-62
2021/01/29 11:20:11;;;;;;;5.93;3.00;;;;;;;;;;5046478;28;20613;-63
2021/01/29 11:22:43;;;;;;;5.10;3.60;;;;;;;;;;5043537;28;20469;-62
2021/01/29 11:25:21;;;;;;;6.03;2.97;;;;;;;;;;5043341;28;20507;-62
2021/01/29 11:27:59;;;;;;;3.80;3.17;;;;;;;;;;5038437;28;20475;-62
2021/01/29 11:30:30;;;;;;;8.70;3.90;;;;;;;;;;5031157;28;20506;-61
2021/01/29 11:32:58;;;;;;;6.50;4.50;;;;;;;;;;5042175;28;20464;-62
2021/01/29 11:35:36;;;;;;;5.10;3.70;;;;;;;;;;5055724;28;20455;-62
2021/01/29 11:38:23;;;;;;;6.10;3.23;;;;;;;;;;5042523;28;20475;-62
2021/01/29 11:41:08;;;;;;;9.00;4.13;;;;;;;;;;5044174;28;20932;-62
2021/01/29 11:43:56;;;;;;;4.83;3.47;;;;;;;;;;5033914;28;20460;-62
2021/01/29 11:46:35;;;;;;;3.67;2.80;;;;;;;;;;5042892;28;20569;-62
2021/01/29 11:49:03;;;;;;;3.10;2.83;;;;;;;;;;5041617;28;20552;-62
2021/01/29 11:51:34;;;;;;;3.53;2.67;;;;;;;;;;5048383;28;20526;-62
2021/01/29 11:54:16;;;;;;;3.10;2.80;;;;;;;;;;5048064;28;20469;-62
2021/01/29 11:56:54;;;;;;;4.33;3.10;;;;;;;;;;5046510;28;20470;-62
2021/01/29 11:59:45;;;;;;;5.30;3.27;;;;;;;;;;5043020;28;20510;-62
2021/01/29 12:02:23;;;;;;;8.80;3.30;;;;;;;;;;5024525;28;21029;-62
2021/01/29 12:05:04;;;;;;;3.80;3.23;;;;;;;;;;5045479;28;20460;-62
2021/01/29 12:07:36;;;;;;;4.30;3.50;;;;;;;;;;5031705;28;20472;-62
2021/01/29 12:10:11;;;;;;;3.13;2.83;;;;;;;;;;5048102;28;20951;-62
2021/01/29 12:12:49;;;;;;;5.70;3.80;;;;;;;;;;5029779;28;20456;-62
2021/01/29 12:15:47;;;;;;;4.87;3.30;;;;;;;;;;5042962;28;20467;-62
2021/01/29 12:18:12;;;;;;;4.13;3.03;;;;;;;;;;5035165;28;20552;-61
2021/01/29 12:20:41;;;;;;;5.57;3.40;;;;;;;;;;5039778;28;20467;-62
2021/01/29 12:23:31;;;;;;;4.23;3.00;;;;;;;;;;5044770;28;20812;-62
2021/01/29 12:26:10;;;;;;;3.37;2.70;;;;;;;;;;5030732;28;20471;-62
2021/01/29 12:28:38;;;;;;;4.67;3.13;;;;;;;;;;5037860;28;20467;-62
2021/01/29 12:31:44;;;;;;;5.70;3.03;;;;;;;;;;5047822;28;20525;-62
2021/01/29 12:34:20;;;;;;;4.23;3.10;;;;;;;;;;5014809;28;20584;-62
2021/01/29 12:36:54;;;;;;;2.80;2.50;;;;;;;;;;5047737;28;20477;-61
2021/01/29 12:39:22;;;;;;;3.90;2.90;;;;;;;;;;5035505;28;20529;-62
2021/01/29 12:42:01;;;;;;;3.80;2.83;;;;;;;;;;5049029;28;20851;-62
2021/01/29 12:44:56;;;;;;;2.93;2.63;;;;;;;;;;5030863;28;20451;-62
2021/01/29 12:47:49;;;;;;;3.40;3.10;;;;;;;;;;5044714;28;20540;-62
2021/01/29 12:50:50;;;;;;;4.03;3.27;;;;;;;;;;5029381;28;20482;-61
2021/01/29 12:53:44;;;;;;;4.30;3.10;;;;;;;;;;5041320;28;20458;-62
2021/01/29 12:56:14;;;;;;;4.20;3.10;;;;;;;;;;5040276;28;20521;-62
2021/01/29 12:58:42;;;;;;;7.30;4.00;;;;;;;;;;5044291;28;20480;-62
2021/01/29 13:01:09;;;;;;;6.50;3.90;;;;;;;;;;5047005;28;20805;-62
2021/01/29 13:03:56;;;;;;;4.50;3.80;;;;;;;;;;5045230;28;20466;-63
2021/01/29 13:06:43;;;;;;;5.00;3.30;;;;;;;;;;5027022;28;20536;-61
2021/01/29 13:09:38;;;;;;;7.13;4.17;;;;;;;;;;5040447;28;20924;-61
2021/01/29 13:12:40;;;;;;;6.53;3.40;;;;;;;;;;5041485;28;20496;-62
2021/01/29 13:15:31;;;;;;;5.00;4.50;;;;;;;;;;5037739;28;20947;-61
2021/01/29 13:18:14;;;;;;;5.93;3.70;;;;;;;;;;5042389;28;21063;-61
2021/01/29 13:20:42;;;;;;;5.83;3.67;;;;;;;;;;5033183;28;20481;-61
2021/01/29 13:23:35;;;;;;;6.97;3.93;;;;;;;;;;5044242;28;21058;-60
2021/01/29 13:26:11;;;;;;;5.17;3.17;;;;;;;;;;5027482;28;20990;-62
2021/01/29 13:28:39;;;;;;;4.57;3.00;;;;;;;;;;5035768;28;20457;-62
2021/01/29 13:31:20;;;;;;;4.57;3.20;;;;;;;;;;5075964;28;20548;-64
2021/01/29 13:33:51;;;;;;;5.57;3.13;;;;;;;;;;5031062;28;20478;-61
2021/01/29 13:36:20;;;;;;;4.87;3.37;;;;;;;;;;5051808;28;20467;-61
2021/01/29 13:38:46;;;;;;;4.10;3.10;;;;;;;;;;5043057;28;20478;-62
2021/01/29 13:41:14;;;;;;;6.10;3.20;;;;;;;;;;5040520;28;20469;-61
2021/01/29 13:43:41;;;;;;;4.83;3.30;;;;;;;;;;5043981;28;20229;-62
2021/01/29 13:46:34;;;;;;;3.53;2.90;;;;;;;;;;5047919;28;20472;-61
2021/01/29 13:49:37;;;;;;;5.07;3.33;;;;;;;;;;5047688;28;20551;-62
2021/01/29 13:52:29;;;;;;;3.67;2.70;;;;;;;;;;5046170;28;20783;-62
2021/01/29 13:55:10;;;;;;;5.50;3.50;;;;;;;;;;5032541;28;20479;-62
2021/01/29 13:57:40;;;;;;;4.73;2.93;;;;;;;;;;5039851;28;20481;-61
2021/01/29 14:00:11;;;;;;;8.30;3.40;;;;;;;;;;5050397;28;20459;-62
2021/01/29 14:02:45;;;;;;;4.20;3.00;;;;;;;;;;5039198;28;20547;-62
2021/01/29 14:05:14;;;;;;;3.07;2.77;;;;;;;;;;5040343;28;20853;-62
2021/01/29 14:07:40;;;;;;;4.73;2.63;;;;;;;;;;5046766;28;20489;-62
2021/01/29 14:10:10;;;;;;;4.17;3.00;;;;;;;;;;5046561;28;20943;-63
2021/01/29 14:12:56;;;;;;;3.07;2.50;;;;;;;;;;5029068;28;20475;-61
2021/01/29 14:15:27;;;;;;;6.13;3.13;;;;;;;;;;5040144;28;20456;-61
2021/01/29 14:18:32;;;;;;;3.30;2.60;;;;;;;;;;5046078;28;20731;-62
2021/01/29 14:21:08;;;;;;;3.37;3.07;;;;;;;;;;5035162;28;20464;-63
2021/01/29 14:23:42;;;;;;;4.53;2.50;;;;;;;;;;5044097;28;20946;-61
2021/01/29 14:26:29;;;;;;;3.10;2.80;;;;;;;;;;5047160;28;20982;-62
2021/01/29 14:29:13;;;;;;;5.97;3.70;;;;;;;;;;5047996;28;20457;-63
2021/01/29 14:31:50;;;;;;;3.80;3.03;;;;;;;;;;5048315;28;20468;-62
2021/01/29 14:34:46;;;;;;;6.47;2.77;;;;;;;;;;5049213;28;20463;-62
2021/01/29 14:37:34;;;;;;;4.93;3.10;;;;;;;;;;5048779;28;20495;-61
2021/01/29 14:40:33;;;;;;;7.73;2.83;;;;;;;;;;5050017;28;20530;-62
2021/01/29 14:43:26;;;;;;;4.90;3.10;;;;;;;;;;5049658;28;20956;-62
2021/01/29 14:46:01;;;;;;;3.20;2.53;;;;;;;;;;5050610;28;20471;-63
2021/01/29 14:49:03;;;;;;;3.47;2.30;;;;;;;;;;5046315;28;20963;-61
2021/01/29 14:51:53;;;;;;;3.50;3.00;;;;;;;;;;5031244;28;20941;-63
2021/01/29 14:54:28;;;;;;;4.10;2.57;;;;;;;;;;5036416;28;20455;-62
2021/01/29 14:57:12;;;;;;;2.90;2.60;;;;;;;;;;5037700;28;20459;-61
2021/01/29 14:59:42;;;;;;;12.10;4.83;;;;;;;;;;5068943;28;20456;-62
2021/01/29 15:02:29;;;;;;;5.60;3.43;;;;;;;;;;5036472;28;20548;-62
2021/01/29 15:04:57;;;;;;;3.87;3.00;;;;;;;;;;5036518;28;20973;-63
2021/01/29 15:07:25;;;;;;;4.30;3.37;;;;;;;;;;5036088;28;20541;-62
2021/01/29 15:10:05;;;;;;;3.87;3.47;;;;;;;;;;5036157;28;20453;-62
2021/01/29 15:12:32;;;;;;;4.93;3.37;;;;;;;;;;5036539;28;20460;-62
2021/01/29 15:14:59;;;;;;;7.53;3.43;;;;;;;;;;5036000;28;20548;-62
2021/01/29 15:17:35;;;;;;;4.30;3.37;;;;;;;;;;5037423;28;20505;-62
2021/01/29 15:20:28;;;;;;;4.20;3.17;;;;;;;;;;5036648;28;20899;-62
2021/01/29 15:23:31;;;;;;;4.90;4.00;;;;;;;;;;5019897;28;20464;-61
2021/01/29 15:25:56;;;;;;;5.07;4.40;;;;;;;;;;5036785;28;20437;-62
2021/01/29 15:28:24;;;;;;;6.10;3.28;;;;;;;;;;5036403;28;20450;-62
2021/01/29 15:30:50;;;;;;;4.80;4.30;;;;;;;;;;5035217;28;20669;-61
2021/01/29 15:33:28;;;;;;;5.23;4.60;;;;;;;;;;5036146;28;20484;-62
2021/01/29 15:36:21;;;;;;;5.63;4.33;;;;;;;;;;5036624;28;20451;-62
2021/01/29 15:39:11;;;;;;;4.97;4.00;;;;;;;;;;5026926;28;20493;-62
2021/01/29 15:41:39;;;;;;;5.23;3.97;;;;;;;;;;5015435;28;20461;-62
2021/01/29 15:44:08;;;;;;;5.10;4.40;;;;;;;;;;5017214;28;20457;-62
2021/01/29 15:46:56;;;;;;;4.97;3.70;;;;;;;;;;5048898;28;20445;-62
2021/01/29 15:49:21;;;;;;;5.97;4.77;;;;;;;;;;5016616;28;20540;-62